Time;durP1;ratioP1;P1;durP2;ratioP2;P2;SDS_P1;SDS_P2;PMS_P1;PMS_P2;Temp;Humidity;BMP_temperature;BMP_pressure;BME280_temperature;BME280_humidity;BME280_pressure;Samples;Min_cycle;Max_cycle;Signal;HPM_P1;HPM_P2
2021/12/03 00:01:28;;;;;;;;;;;1.80;1.00;;;;;;4111672;28;19990;-52
2021/12/03 00:03:30;;;;;;;;;;;1.80;1.00;;;;;;4091916;28;20032;-46
2021/12/03 00:05:32;;;;;;;;;;;1.60;1.00;;;;;;4093207;28;20382;-48
2021/12/03 00:07:36;;;;;;;;;;;1.60;1.00;;;;;;4093852;28;20419;-51
2021/12/03 00:09:38;;;;;;;;;;;1.50;1.00;;;;;;4111561;28;20440;-51
2021/12/03 00:11:40;;;;;;;;;;;1.50;1.00;;;;;;4105379;28;19997;-46
2021/12/03 00:13:42;;;;;;;;;;;1.50;1.00;;;;;;4112922;28;19941;-47
2021/12/03 00:15:44;;;;;;;;;;;1.50;1.00;;;;;;4116947;28;19955;-47
2021/12/03 00:17:46;;;;;;;;;;;1.50;1.00;;;;;;4111151;28;20068;-46
2021/12/03 00:19:48;;;;;;;;;;;1.50;1.00;;;;;;4109875;28;19946;-48
2021/12/03 00:21:50;;;;;;;;;;;1.50;1.00;;;;;;4093884;28;19974;-47
2021/12/03 00:23:52;;;;;;;;;;;1.40;1.00;;;;;;4093315;28;19945;-49
2021/12/03 00:25:55;;;;;;;;;;;1.30;1.00;;;;;;4092121;28;20068;-47
2021/12/03 00:27:57;;;;;;;;;;;1.40;1.00;;;;;;4094058;28;19981;-46
2021/12/03 00:29:59;;;;;;;;;;;1.30;1.00;;;;;;4109919;28;19985;-47
2021/12/03 00:32:00;;;;;;;;;;;1.30;1.00;;;;;;4111039;28;19946;-46
2021/12/03 00:34:02;;;;;;;;;;;1.30;1.00;;;;;;4094938;28;19951;-50
2021/12/03 00:36:06;;;;;;;;;;;1.20;1.00;;;;;;4094243;28;19942;-49
2021/12/03 00:38:08;;;;;;;;;;;1.20;1.00;;;;;;4093573;28;20047;-49
2021/12/03 00:40:11;;;;;;;;;;;1.20;1.00;;;;;;4110907;28;20416;-49
2021/12/03 00:42:16;;;;;;;;;;;1.20;1.00;;;;;;4096310;28;20432;-46
2021/12/03 00:44:22;;;;;;;;;;;1.20;1.00;;;;;;4096833;28;20480;-47
2021/12/03 00:46:24;;;;;;;;;;;1.30;1.00;;;;;;4096325;28;19965;-48
2021/12/03 00:48:26;;;;;;;;;;;1.30;1.00;;;;;;4112658;28;19955;-46
2021/12/03 00:50:29;;;;;;;;;;;1.20;1.00;;;;;;4092374;28;19975;-49
2021/12/03 00:52:31;;;;;;;;;;;1.20;1.00;;;;;;4094919;28;20334;-49
2021/12/03 00:54:33;;;;;;;;;;;1.30;1.00;;;;;;4092338;28;19956;-46
2021/12/03 00:56:34;;;;;;;;;;;1.20;1.00;;;;;;4108561;28;19942;-48
2021/12/03 00:58:36;;;;;;;;;;;1.20;1.00;;;;;;4110553;28;19946;-46
2021/12/03 01:00:38;;;;;;;;;;;1.20;1.00;;;;;;4108234;28;19977;-47
2021/12/03 01:02:41;;;;;;;;;;;1.10;1.00;;;;;;4113199;28;19958;-46
2021/12/03 01:04:43;;;;;;;;;;;1.10;1.00;;;;;;4107354;28;19948;-47
2021/12/03 01:06:45;;;;;;;;;;;1.10;1.00;;;;;;4110425;28;20380;-48
2021/12/03 01:08:47;;;;;;;;;;;1.10;1.00;;;;;;4095324;28;19939;-45
2021/12/03 01:10:49;;;;;;;;;;;1.10;1.00;;;;;;4107866;28;19943;-47
2021/12/03 01:12:52;;;;;;;;;;;1.10;1.00;;;;;;4093825;28;19947;-47
2021/12/03 01:14:53;;;;;;;;;;;1.00;1.00;;;;;;4107629;28;19976;-47
2021/12/03 01:16:55;;;;;;;;;;;1.00;1.00;;;;;;4113312;28;19989;-47
2021/12/03 01:18:58;;;;;;;;;;;0.90;1.00;;;;;;4094082;28;19958;-49
2021/12/03 01:21:00;;;;;;;;;;;1.00;1.00;;;;;;4108408;28;19941;-52
2021/12/03 01:23:03;;;;;;;;;;;0.90;1.00;;;;;;4095782;28;20009;-47
2021/12/03 01:25:05;;;;;;;;;;;0.90;1.00;;;;;;4094356;28;20158;-49
2021/12/03 01:27:07;;;;;;;;;;;0.80;1.00;;;;;;4092439;28;20032;-49
2021/12/03 01:29:09;;;;;;;;;;;0.80;1.00;;;;;;4093177;28;20108;-50
2021/12/03 01:31:12;;;;;;;;;;;0.80;1.00;;;;;;4093272;28;19979;-50
2021/12/03 01:33:14;;;;;;;;;;;0.90;1.00;;;;;;4092247;28;20397;-47
2021/12/03 01:35:16;;;;;;;;;;;0.80;1.00;;;;;;4108340;28;19951;-49
2021/12/03 01:37:18;;;;;;;;;;;0.80;1.00;;;;;;4094784;28;19970;-47
2021/12/03 01:39:20;;;;;;;;;;;0.70;1.00;;;;;;4094857;28;19999;-51
2021/12/03 01:41:21;;;;;;;;;;;0.70;1.00;;;;;;4106649;28;19948;-46
2021/12/03 01:43:24;;;;;;;;;;;0.60;1.00;;;;;;4107912;28;19958;-53
2021/12/03 01:45:28;;;;;;;;;;;0.60;1.00;;;;;;4107426;28;20007;-49
2021/12/03 01:47:30;;;;;;;;;;;0.60;1.00;;;;;;4090250;28;19957;-46
2021/12/03 01:49:32;;;;;;;;;;;0.60;1.00;;;;;;4095678;28;20315;-47
2021/12/03 01:51:34;;;;;;;;;;;0.50;1.00;;;;;;4094062;28;19942;-46
2021/12/03 01:53:37;;;;;;;;;;;0.40;1.00;;;;;;4108987;28;19945;-49
2021/12/03 01:55:39;;;;;;;;;;;0.40;1.00;;;;;;4111034;28;20399;-50
2021/12/03 01:57:41;;;;;;;;;;;0.30;1.00;;;;;;4091839;28;20060;-50
2021/12/03 01:59:43;;;;;;;;;;;0.30;1.00;;;;;;4086345;28;19945;-48
2021/12/03 02:01:44;;;;;;;;;;;0.30;1.00;;;;;;4103768;28;19971;-48
2021/12/03 02:03:48;;;;;;;;;;;0.40;1.00;;;;;;4107813;28;20041;-46
2021/12/03 02:05:51;;;;;;;;;;;0.40;1.00;;;;;;4098576;28;19947;-51
2021/12/03 02:07:53;;;;;;;;;;;0.40;1.00;;;;;;4096323;28;19961;-49
2021/12/03 02:09:54;;;;;;;;;;;0.40;1.00;;;;;;4093714;28;20441;-47
2021/12/03 02:11:56;;;;;;;;;;;0.40;1.00;;;;;;4110120;28;19984;-48
2021/12/03 02:13:58;;;;;;;;;;;0.40;1.00;;;;;;4110033;28;19974;-49
2021/12/03 02:16:01;;;;;;;;;;;0.40;1.00;;;;;;4105140;28;19942;-49
2021/12/03 02:18:03;;;;;;;;;;;0.40;1.00;;;;;;4103196;28;19996;-50
2021/12/03 02:20:06;;;;;;;;;;;0.40;1.00;;;;;;4109093;28;19944;-49
2021/12/03 02:22:08;;;;;;;;;;;0.40;1.00;;;;;;4092873;28;19977;-49
2021/12/03 02:24:10;;;;;;;;;;;0.40;1.00;;;;;;4093335;28;19948;-50
2021/12/03 02:26:13;;;;;;;;;;;0.40;1.00;;;;;;4094360;28;20033;-47
2021/12/03 02:28:16;;;;;;;;;;;0.40;1.00;;;;;;4090911;28;19987;-50
2021/12/03 02:30:18;;;;;;;;;;;0.40;1.00;;;;;;4110633;28;20432;-47
2021/12/03 02:32:20;;;;;;;;;;;0.40;1.00;;;;;;4108587;28;19956;-47
2021/12/03 02:34:22;;;;;;;;;;;0.40;1.00;;;;;;4112082;28;19946;-46
2021/12/03 02:36:24;;;;;;;;;;;0.40;1.00;;;;;;4090448;28;19946;-48
2021/12/03 02:38:26;;;;;;;;;;;0.40;1.00;;;;;;4095701;28;21159;-48
2021/12/03 02:40:28;;;;;;;;;;;0.40;1.00;;;;;;4093441;28;20015;-46
2021/12/03 02:42:30;;;;;;;;;;;0.40;1.00;;;;;;4107775;28;20404;-47
2021/12/03 02:44:32;;;;;;;;;;;0.40;1.00;;;;;;4109008;28;19956;-48
2021/12/03 02:46:34;;;;;;;;;;;0.50;1.00;;;;;;4109185;28;19942;-48
2021/12/03 02:48:36;;;;;;;;;;;0.40;1.00;;;;;;4110012;28;20033;-49
2021/12/03 02:50:38;;;;;;;;;;;0.40;1.00;;;;;;4109058;28;20344;-50
2021/12/03 02:52:41;;;;;;;;;;;0.30;1.00;;;;;;4093880;28;19994;-48
2021/12/03 02:54:42;;;;;;;;;;;0.30;1.00;;;;;;4111531;28;19956;-49
2021/12/03 02:56:44;;;;;;;;;;;0.30;1.00;;;;;;4110686;28;20027;-48
2021/12/03 02:58:46;;;;;;;;;;;0.30;1.00;;;;;;4113642;28;20458;-50
2021/12/03 03:00:50;;;;;;;;;;;0.30;1.00;;;;;;4099839;28;20025;-48
2021/12/03 03:02:51;;;;;;;;;;;0.30;1.00;;;;;;4114349;28;19956;-49
2021/12/03 03:04:54;;;;;;;;;;;0.30;1.00;;;;;;4114724;28;19975;-48
2021/12/03 03:06:56;;;;;;;;;;;0.20;1.00;;;;;;4097526;28;19983;-47
2021/12/03 03:08:58;;;;;;;;;;;0.30;1.00;;;;;;4112941;28;19941;-48
2021/12/03 03:11:02;;;;;;;;;;;0.30;1.00;;;;;;4108490;28;19967;-48
2021/12/03 03:13:04;;;;;;;;;;;0.30;1.00;;;;;;4092515;28;19977;-46
2021/12/03 03:15:07;;;;;;;;;;;0.20;1.00;;;;;;4096598;28;19939;-47
2021/12/03 03:17:09;;;;;;;;;;;0.20;1.00;;;;;;4113503;28;19994;-47
2021/12/03 03:19:16;;;;;;;;;;;0.30;1.00;;;;;;4108883;28;19938;-46
2021/12/03 03:21:18;;;;;;;;;;;0.20;1.00;;;;;;4107399;28;20007;-50
2021/12/03 03:23:20;;;;;;;;;;;0.30;1.00;;;;;;4111602;28;19965;-50
2021/12/03 03:25:22;;;;;;;;;;;0.30;1.00;;;;;;4108229;28;20318;-52
2021/12/03 03:27:24;;;;;;;;;;;0.20;1.00;;;;;;4108255;28;20019;-47
2021/12/03 03:29:27;;;;;;;;;;;0.30;1.00;;;;;;4093847;28;20308;-47
2021/12/03 03:31:29;;;;;;;;;;;0.30;1.00;;;;;;4095053;28;19948;-49
2021/12/03 03:33:30;;;;;;;;;;;0.30;1.00;;;;;;4094237;28;20332;-49
2021/12/03 03:35:33;;;;;;;;;;;0.30;1.00;;;;;;4097625;28;19967;-48
2021/12/03 03:37:35;;;;;;;;;;;0.20;1.00;;;;;;4116377;28;19958;-50
2021/12/03 03:39:37;;;;;;;;;;;0.30;1.00;;;;;;4107650;28;19941;-49
2021/12/03 03:41:40;;;;;;;;;;;0.40;1.00;;;;;;4110440;28;20406;-50
2021/12/03 03:43:42;;;;;;;;;;;0.40;1.00;;;;;;4095543;28;19993;-48
2021/12/03 03:45:44;;;;;;;;;;;0.30;1.00;;;;;;4111429;28;20006;-49
2021/12/03 03:47:46;;;;;;;;;;;0.30;1.00;;;;;;4110436;28;19963;-52
2021/12/03 03:49:48;;;;;;;;;;;0.30;1.00;;;;;;4092982;28;19948;-48
2021/12/03 03:51:50;;;;;;;;;;;0.30;1.00;;;;;;4114097;28;20030;-49
2021/12/03 03:53:52;;;;;;;;;;;0.20;1.00;;;;;;4108239;28;19994;-51
2021/12/03 03:55:54;;;;;;;;;;;0.20;1.00;;;;;;4110525;28;19940;-51
2021/12/03 03:57:57;;;;;;;;;;;0.10;1.00;;;;;;4114117;28;19990;-51
2021/12/03 04:00:00;;;;;;;;;;;0.10;1.00;;;;;;4092978;28;20003;-48
2021/12/03 04:02:01;;;;;;;;;;;0.10;1.00;;;;;;4111511;28;19950;-48
2021/12/03 04:04:07;;;;;;;;;;;0.10;1.00;;;;;;4111156;28;19962;-47
2021/12/03 04:06:08;;;;;;;;;;;0.00;1.00;;;;;;4106707;28;20394;-51
2021/12/03 04:08:10;;;;;;;;;;;0.00;1.00;;;;;;4095103;28;20533;-49
2021/12/03 04:10:12;;;;;;;;;;;0.10;1.00;;;;;;4109167;28;20702;-48
2021/12/03 04:12:14;;;;;;;;;;;0.10;1.00;;;;;;4094270;28;19945;-49
2021/12/03 04:14:16;;;;;;;;;;;0.10;1.00;;;;;;4094186;28;20050;-50
2021/12/03 04:16:18;;;;;;;;;;;0.10;1.00;;;;;;4090926;28;20401;-50
2021/12/03 04:18:20;;;;;;;;;;;0.00;1.00;;;;;;4111808;28;20041;-49
2021/12/03 04:20:22;;;;;;;;;;;0.00;1.00;;;;;;4107991;28;20004;-47
2021/12/03 04:22:24;;;;;;;;;;;-0.10;1.00;;;;;;4110595;28;20005;-49
2021/12/03 04:24:26;;;;;;;;;;;-0.10;1.00;;;;;;4091083;28;20041;-48
2021/12/03 04:26:28;;;;;;;;;;;0.00;1.00;;;;;;4096681;28;19972;-49
2021/12/03 04:28:30;;;;;;;;;;;0.10;1.00;;;;;;4110570;28;20061;-49
2021/12/03 04:30:32;;;;;;;;;;;0.00;1.00;;;;;;4107876;28;20005;-52
2021/12/03 04:32:33;;;;;;;;;;;0.10;1.00;;;;;;4108481;28;19950;-47
2021/12/03 04:34:35;;;;;;;;;;;0.00;1.00;;;;;;4095411;28;19946;-47
2021/12/03 04:36:37;;;;;;;;;;;0.00;1.00;;;;;;4109444;28;20437;-47
2021/12/03 04:38:39;;;;;;;;;;;0.00;1.00;;;;;;4109440;28;19942;-47
2021/12/03 04:40:41;;;;;;;;;;;-0.10;1.00;;;;;;4109213;28;19988;-51
2021/12/03 04:42:44;;;;;;;;;;;-0.10;1.00;;;;;;4104857;28;19949;-47
2021/12/03 04:44:46;;;;;;;;;;;-0.20;1.00;;;;;;4106328;28;20054;-48
2021/12/03 04:46:47;;;;;;;;;;;-0.20;1.00;;;;;;4097968;28;19988;-50
2021/12/03 04:48:50;;;;;;;;;;;-0.30;1.00;;;;;;4109511;28;19942;-48
2021/12/03 04:50:51;;;;;;;;;;;-0.30;1.00;;;;;;4093745;28;19944;-49
2021/12/03 04:52:54;;;;;;;;;;;-0.30;1.00;;;;;;4092691;28;20023;-49
2021/12/03 04:54:56;;;;;;;;;;;-0.30;1.00;;;;;;4111477;28;20019;-48
2021/12/03 04:56:58;;;;;;;;;;;-0.40;1.00;;;;;;4111107;28;20331;-49
2021/12/03 04:59:00;;;;;;;;;;;-0.40;1.00;;;;;;4109174;28;19956;-52
2021/12/03 05:01:02;;;;;;;;;;;-0.40;1.00;;;;;;4095871;28;19998;-49
2021/12/03 05:03:04;;;;;;;;;;;-0.50;1.00;;;;;;4094669;28;20053;-49
2021/12/03 05:05:07;;;;;;;;;;;-0.50;1.00;;;;;;4105822;28;20488;-50
2021/12/03 05:09:14;;;;;;;;;;;-0.60;1.00;;;;;;4108601;28;19956;-52
2021/12/03 05:11:15;;;;;;;;;;;-0.60;1.00;;;;;;4106154;28;19990;-52
2021/12/03 05:13:19;;;;;;;;;;;-0.50;1.00;;;;;;4105415;28;20464;-47
2021/12/03 05:15:21;;;;;;;;;;;-0.50;1.00;;;;;;4111256;28;19948;-47
2021/12/03 05:17:23;;;;;;;;;;;-0.60;1.00;;;;;;4093655;28;20030;-50
2021/12/03 05:19:25;;;;;;;;;;;-0.60;1.00;;;;;;4092285;28;20425;-51
2021/12/03 05:21:26;;;;;;;;;;;-0.60;1.00;;;;;;4092789;28;19940;-51
2021/12/03 05:23:29;;;;;;;;;;;-0.60;1.00;;;;;;4108657;28;19965;-46
2021/12/03 05:25:32;;;;;;;;;;;-0.60;1.00;;;;;;4090790;28;19957;-51
2021/12/03 05:27:33;;;;;;;;;;;-0.70;1.00;;;;;;4108966;28;19967;-48
2021/12/03 05:29:35;;;;;;;;;;;-0.70;1.00;;;;;;4110667;28;19948;-50
2021/12/03 05:31:37;;;;;;;;;;;-0.70;1.00;;;;;;4094143;28;19943;-50
2021/12/03 05:33:59;;;;;;;;;;;-0.70;1.00;;;;;;4106415;28;19986;-47
2021/12/03 05:36:01;;;;;;;;;;;-0.60;1.00;;;;;;4096895;28;20310;-47
2021/12/03 05:38:03;;;;;;;;;;;-0.60;1.00;;;;;;4094856;28;20489;-49
2021/12/03 05:40:07;;;;;;;;;;;-0.60;1.00;;;;;;4093451;28;19941;-47
2021/12/03 05:42:08;;;;;;;;;;;-0.60;1.00;;;;;;4111444;28;20310;-50
2021/12/03 05:44:10;;;;;;;;;;;-0.60;1.00;;;;;;4108803;28;19983;-50
2021/12/03 05:46:13;;;;;;;;;;;-0.60;1.00;;;;;;4105799;28;19945;-50
2021/12/03 05:48:15;;;;;;;;;;;-0.60;1.00;;;;;;4108791;28;19955;-50
2021/12/03 05:50:17;;;;;;;;;;;-0.60;1.00;;;;;;4096568;28;19944;-50
2021/12/03 05:52:19;;;;;;;;;;;-0.60;1.00;;;;;;4110662;28;19949;-48
2021/12/03 05:54:21;;;;;;;;;;;-0.60;1.00;;;;;;4108321;28;20398;-49
2021/12/03 05:56:24;;;;;;;;;;;-0.50;1.00;;;;;;4112757;28;20364;-49
2021/12/03 05:58:26;;;;;;;;;;;-0.50;1.00;;;;;;4094437;28;19995;-49
2021/12/03 06:00:33;;;;;;;;;;;-0.50;1.00;;;;;;4112265;28;20462;-47
2021/12/03 06:02:35;;;;;;;;;;;-0.50;1.00;;;;;;4093748;28;20368;-47
2021/12/03 06:04:37;;;;;;;;;;;-0.50;1.00;;;;;;4113043;28;19957;-47
2021/12/03 06:06:39;;;;;;;;;;;-0.40;1.00;;;;;;4113661;28;20477;-49
2021/12/03 06:08:41;;;;;;;;;;;-0.40;1.00;;;;;;4108060;28;20074;-46
2021/12/03 06:10:43;;;;;;;;;;;-0.40;1.00;;;;;;4108821;28;19941;-47
2021/12/03 06:12:45;;;;;;;;;;;-0.40;1.00;;;;;;4109460;28;19940;-47
2021/12/03 06:14:47;;;;;;;;;;;-0.40;1.00;;;;;;4092087;28;19951;-46
2021/12/03 06:16:49;;;;;;;;;;;-0.40;1.00;;;;;;4110543;28;19941;-47
2021/12/03 06:18:50;;;;;;;;;;;-0.30;1.00;;;;;;4095549;28;20555;-51
2021/12/03 06:20:52;;;;;;;;;;;-0.30;1.00;;;;;;4107697;28;20299;-49
2021/12/03 06:22:54;;;;;;;;;;;-0.20;1.00;;;;;;4108743;28;19948;-47
2021/12/03 06:24:56;;;;;;;;;;;-0.20;1.00;;;;;;4109735;28;20002;-48
2021/12/03 06:26:58;;;;;;;;;;;-0.10;1.00;;;;;;4110371;28;20001;-49
2021/12/03 06:29:00;;;;;;;;;;;0.00;1.00;;;;;;4111325;28;19938;-47
2021/12/03 06:31:02;;;;;;;;;;;-0.10;1.00;;;;;;4110959;28;19939;-47
2021/12/03 06:33:05;;;;;;;;;;;0.00;1.00;;;;;;4093972;28;19948;-49
2021/12/03 06:35:08;;;;;;;;;;;0.00;1.00;;;;;;4094443;28;19997;-52
2021/12/03 06:37:10;;;;;;;;;;;0.00;1.00;;;;;;4091802;28;19976;-51
2021/12/03 06:39:13;;;;;;;;;;;0.10;1.00;;;;;;4109497;28;19942;-48
2021/12/03 06:41:14;;;;;;;;;;;0.00;1.00;;;;;;4094591;28;20466;-48
2021/12/03 06:43:17;;;;;;;;;;;0.00;1.00;;;;;;4108521;28;19942;-46
2021/12/03 06:45:19;;;;;;;;;;;0.00;1.00;;;;;;4094984;28;19955;-48
2021/12/03 06:47:21;;;;;;;;;;;0.10;1.00;;;;;;4095337;28;19986;-48
2021/12/03 06:49:23;;;;;;;;;;;0.10;1.00;;;;;;4105242;28;19994;-47
2021/12/03 06:51:24;;;;;;;;;;;0.10;1.00;;;;;;4109741;28;19944;-48
2021/12/03 06:53:37;;;;;;;;;;;0.10;1.00;;;;;;4111765;28;20125;-50
2021/12/03 06:57:47;;;;;;;;;;;0.20;1.00;;;;;;4110757;28;20310;-47
2021/12/03 06:59:49;;;;;;;;;;;0.20;1.00;;;;;;4111749;28;19943;-48
2021/12/03 07:01:51;;;;;;;;;;;0.20;1.00;;;;;;4097432;28;20003;-49
2021/12/03 07:03:53;;;;;;;;;;;0.10;1.00;;;;;;4094932;28;20456;-48
2021/12/03 07:05:55;;;;;;;;;;;0.10;1.00;;;;;;4095985;28;19944;-50
2021/12/03 07:07:57;;;;;;;;;;;0.10;1.00;;;;;;4094111;28;19964;-47
2021/12/03 07:10:00;;;;;;;;;;;0.10;1.00;;;;;;4093251;28;20376;-48
2021/12/03 07:12:02;;;;;;;;;;;0.10;1.00;;;;;;4097906;28;20507;-46
2021/12/03 07:14:04;;;;;;;;;;;0.10;1.00;;;;;;4110174;28;19976;-47
2021/12/03 07:16:06;;;;;;;;;;;0.20;1.00;;;;;;4111508;28;20017;-46
2021/12/03 07:18:08;;;;;;;;;;;0.20;1.00;;;;;;4110301;28;19952;-46
2021/12/03 07:20:11;;;;;;;;;;;0.20;1.00;;;;;;4111259;28;20040;-50
2021/12/03 07:22:12;;;;;;;;;;;0.20;1.00;;;;;;4112833;28;20006;-46
2021/12/03 07:24:15;;;;;;;;;;;0.20;1.00;;;;;;4111787;28;19953;-49
2021/12/03 07:26:18;;;;;;;;;;;0.30;1.00;;;;;;4110155;28;19940;-46
2021/12/03 07:28:20;;;;;;;;;;;0.30;1.00;;;;;;4113317;28;19998;-46
2021/12/03 07:30:22;;;;;;;;;;;0.30;1.00;;;;;;4108913;28;20427;-46
2021/12/03 07:32:24;;;;;;;;;;;0.30;1.00;;;;;;4094906;28;19937;-47
2021/12/03 07:34:26;;;;;;;;;;;0.30;1.00;;;;;;4110593;28;20362;-46
2021/12/03 07:36:28;;;;;;;;;;;0.30;1.00;;;;;;4113045;28;20431;-46
2021/12/03 07:38:30;;;;;;;;;;;0.30;1.00;;;;;;4112652;28;19959;-47
2021/12/03 07:40:35;;;;;;;;;;;0.30;1.00;;;;;;4112647;28;19972;-48
2021/12/03 07:42:37;;;;;;;;;;;0.40;1.00;;;;;;4098959;28;19942;-46
2021/12/03 07:44:38;;;;;;;;;;;0.50;1.00;;;;;;4095319;28;19970;-48
2021/12/03 07:46:40;;;;;;;;;;;0.50;1.00;;;;;;4111141;28;20293;-47
2021/12/03 07:48:47;;;;;;;;;;;0.50;1.00;;;;;;4112281;28;20314;-49
2021/12/03 07:50:49;;;;;;;;;;;0.50;1.00;;;;;;4114332;28;19942;-46
2021/12/03 07:52:51;;;;;;;;;;;0.40;1.00;;;;;;4113269;28;20345;-46
2021/12/03 07:54:53;;;;;;;;;;;0.50;1.00;;;;;;4119813;28;19943;-46
2021/12/03 07:56:55;;;;;;;;;;;0.60;1.00;;;;;;4114121;28;19957;-46
2021/12/03 07:58:56;;;;;;;;;;;0.60;1.00;;;;;;4097621;28;19946;-48
2021/12/03 08:00:58;;;;;;;;;;;0.60;1.00;;;;;;4114313;28;20414;-47
2021/12/03 08:03:00;;;;;;;;;;;0.50;1.00;;;;;;4112350;28;19938;-47
2021/12/03 08:05:03;;;;;;;;;;;0.50;1.00;;;;;;4112724;28;20437;-47
2021/12/03 08:07:04;;;;;;;;;;;0.60;1.00;;;;;;4115065;28;19957;-48
2021/12/03 08:09:07;;;;;;;;;;;0.60;1.00;;;;;;4114474;28;19939;-47
2021/12/03 08:11:09;;;;;;;;;;;0.60;1.00;;;;;;4113414;28;19984;-48
2021/12/03 08:13:11;;;;;;;;;;;0.60;1.00;;;;;;4112191;28;19986;-51
2021/12/03 08:15:14;;;;;;;;;;;0.60;1.00;;;;;;4096374;28;19941;-48
2021/12/03 08:17:16;;;;;;;;;;;0.70;1.00;;;;;;4119197;28;19991;-47
2021/12/03 08:19:18;;;;;;;;;;;0.70;1.00;;;;;;4110432;28;20031;-47
2021/12/03 08:21:20;;;;;;;;;;;0.60;1.00;;;;;;4115177;28;19940;-51
2021/12/03 08:23:22;;;;;;;;;;;0.60;1.00;;;;;;4113526;28;20326;-47
2021/12/03 08:25:25;;;;;;;;;;;0.60;1.00;;;;;;4112440;28;19952;-49
2021/12/03 08:27:27;;;;;;;;;;;0.70;1.00;;;;;;4113389;28;19954;-48
2021/12/03 08:29:29;;;;;;;;;;;0.70;1.00;;;;;;4112286;28;19940;-47
2021/12/03 08:31:31;;;;;;;;;;;0.70;1.00;;;;;;4110639;28;19942;-46
2021/12/03 08:33:33;;;;;;;;;;;0.80;1.00;;;;;;4112998;28;19971;-47
2021/12/03 08:35:35;;;;;;;;;;;0.70;1.00;;;;;;4097812;28;20006;-48
2021/12/03 08:37:38;;;;;;;;;;;0.70;1.00;;;;;;4106755;28;19966;-50
2021/12/03 08:39:39;;;;;;;;;;;0.70;1.00;;;;;;4093944;28;19959;-51
2021/12/03 08:41:44;;;;;;;;;;;0.70;1.00;;;;;;4110467;28;19941;-52
2021/12/03 08:43:47;;;;;;;;;;;0.70;1.00;;;;;;4111003;28;19941;-47
2021/12/03 08:45:54;;;;;;;;;;;0.70;1.00;;;;;;4108968;28;19993;-48
2021/12/03 08:48:00;;;;;;;;;;;0.80;1.00;;;;;;4110584;28;19955;-48
2021/12/03 08:50:06;;;;;;;;;;;0.70;1.00;;;;;;4110881;28;19941;-49
2021/12/03 08:56:32;;;;;;;;;;;0.70;1.00;;;;;;4115003;28;19995;-47
2021/12/03 08:58:34;;;;;;;;;;;0.70;1.00;;;;;;4112069;28;19977;-49
2021/12/03 09:00:37;;;;;;;;;;;0.60;1.00;;;;;;4112332;28;19948;-52
2021/12/03 09:02:39;;;;;;;;;;;0.60;1.00;;;;;;4093541;28;19984;-50
2021/12/03 09:04:41;;;;;;;;;;;0.60;1.00;;;;;;4113040;28;19957;-47
2021/12/03 09:06:43;;;;;;;;;;;0.60;1.00;;;;;;4113085;28;20502;-47
2021/12/03 09:08:45;;;;;;;;;;;0.60;1.00;;;;;;4110924;28;19989;-48
2021/12/03 09:10:47;;;;;;;;;;;0.60;1.00;;;;;;4111866;28;19939;-47
2021/12/03 09:12:49;;;;;;;;;;;0.70;1.00;;;;;;4112966;28;19938;-51
2021/12/03 09:14:57;;;;;;;;;;;0.70;1.00;;;;;;4110256;28;20496;-47
2021/12/03 09:17:30;;;;;;;;;;;0.70;1.00;;;;;;4108821;28;19962;-47
2021/12/03 09:19:29;;;;;;;;;;;0.70;1.00;;;;;;4111907;28;20368;-49
2021/12/03 09:21:34;;;;;;;;;;;0.70;1.00;;;;;;4111533;28;19937;-49
2021/12/03 09:26:08;;;;;;;;;;;0.70;1.00;;;;;;4105535;28;20023;-51
2021/12/03 09:28:12;;;;;;;;;;;0.70;1.00;;;;;;4110478;28;20002;-47
2021/12/03 09:30:15;;;;;;;;;;;0.70;1.00;;;;;;4107108;28;20002;-47
2021/12/03 09:32:22;;;;;;;;;;;0.70;1.00;;;;;;4108364;28;20035;-47
2021/12/03 09:34:25;;;;;;;;;;;0.70;1.00;;;;;;4105563;28;20406;-48
2021/12/03 09:36:27;;;;;;;;;;;0.70;1.00;;;;;;4108423;28;20004;-46
2021/12/03 09:38:34;;;;;;;;;;;0.70;1.00;;;;;;4107235;28;20026;-46
2021/12/03 09:40:37;;;;;;;;;;;0.70;1.00;;;;;;4107129;28;19981;-46
2021/12/03 09:42:39;;;;;;;;;;;0.70;1.00;;;;;;4093653;28;19944;-48
2021/12/03 09:44:45;;;;;;;;;;;0.80;1.00;;;;;;4109984;28;19958;-48
2021/12/03 09:46:48;;;;;;;;;;;0.80;1.00;;;;;;4091958;28;19948;-49
2021/12/03 09:50:55;;;;;;;;;;;0.80;1.00;;;;;;4112319;28;19976;-47
2021/12/03 09:55:13;;;;;;;;;;;0.80;1.00;;;;;;4112370;28;20017;-49
2021/12/03 09:57:35;;;;;;;;;;;0.70;1.00;;;;;;4096388;28;20003;-46
2021/12/03 10:11:49;;;;;;;;;;;0.80;1.00;;;;;;4112306;28;20349;-48
2021/12/03 10:13:39;;;;;;;;;;;0.80;1.00;;;;;;4108421;28;20324;-47
2021/12/03 10:15:59;;;;;;;;;;;0.80;1.00;;;;;;4095324;28;19976;-46
2021/12/03 10:18:18;;;;;;;;;;;0.70;1.00;;;;;;4112232;28;20043;-47
2021/12/03 10:23:32;;;;;;;;;;;0.70;1.00;;;;;;4111416;28;19988;-46
2021/12/03 10:29:43;;;;;;;;;;;0.80;1.00;;;;;;4111114;28;19944;-50
2021/12/03 10:34:23;;;;;;;;;;;0.70;1.00;;;;;;4112456;28;19946;-48
2021/12/03 10:49:59;;;;;;;;;;;0.70;1.00;;;;;;4111610;28;20094;-47
2021/12/03 10:52:13;;;;;;;;;;;0.70;1.00;;;;;;4108602;28;19946;-48
2021/12/03 10:54:46;;;;;;;;;;;0.80;1.00;;;;;;4111691;28;19950;-49
2021/12/03 10:57:02;;;;;;;;;;;0.80;1.00;;;;;;4108931;28;19945;-48
2021/12/03 11:19:02;;;;;;;;;;;0.90;1.00;;;;;;4112639;28;19967;-48
2021/12/03 11:59:19;;;;;;;;;;;0.90;1.00;;;;;;4116565;28;20392;-48
2021/12/03 12:09:13;;;;;;;;;;;0.90;1.00;;;;;;4113760;28;19954;-47
2021/12/03 12:20:56;;;;;;;;;;;0.90;1.00;;;;;;4111303;28;19934;-51
2021/12/03 12:23:58;;;;;;;;;;;0.90;1.00;;;;;;4111464;28;19943;-49
2021/12/03 12:26:47;;;;;;;;;;;0.90;1.00;;;;;;4114883;28;19946;-50
2021/12/03 12:46:16;;;;;;;;;;;1.10;1.00;;;;;;4111980;28;19943;-48
2021/12/03 13:30:19;;;;;;;;;;;1.20;1.00;;;;;;4113056;28;19939;-56
2021/12/03 14:06:01;;;;;;;;;;;1.50;1.00;;;;;;4110709;28;19943;-47
2021/12/03 14:13:24;;;;;;;;;;;1.50;1.00;;;;;;4111857;28;19945;-47
2021/12/03 14:33:23;;;;;;;;;;;1.70;1.00;;;;;;4108774;28;19959;-52
2021/12/03 14:41:20;;;;;;;;;;;1.70;1.00;;;;;;4109866;28;19943;-52
2021/12/03 14:43:25;;;;;;;;;;;1.70;1.00;;;;;;4111639;28;20340;-48
2021/12/03 14:52:38;;;;;;;;;;;1.80;1.00;;;;;;4109409;28;19961;-51
2021/12/03 14:57:05;;;;;;;;;;;1.80;1.00;;;;;;4113713;28;19958;-46
2021/12/03 14:59:17;;;;;;;;;;;1.70;1.00;;;;;;4111853;28;19944;-48
2021/12/03 15:08:01;;;;;;;;;;;1.80;1.00;;;;;;4111675;28;20009;-52
2021/12/03 15:10:06;;;;;;;;;;;1.80;1.00;;;;;;4096887;28;19940;-51
2021/12/03 15:12:35;;;;;;;;;;;1.80;1.00;;;;;;4112493;28;19943;-49
2021/12/03 15:19:21;;;;;;;;;;;1.70;1.00;;;;;;4108822;28;19982;-49
2021/12/03 15:33:05;;;;;;;;;;;1.80;1.00;;;;;;4110210;28;19939;-48
2021/12/03 15:56:05;;;;;;;;;;;1.80;1.00;;;;;;4111963;28;19941;-51
2021/12/03 16:05:05;;;;;;;;;;;1.80;1.00;;;;;;4107939;28;20024;-47
2021/12/03 16:11:40;;;;;;;;;;;1.90;1.00;;;;;;4110528;28;20305;-52
2021/12/03 16:23:49;;;;;;;;;;;1.90;1.00;;;;;;4057758;28;19946;-48
2021/12/03 16:49:27;;;;;;;;;;;1.80;1.00;;;;;;4111216;28;19952;-47
2021/12/03 16:51:09;;;;;;;;;;;1.80;1.00;;;;;;4108289;28;19944;-49
2021/12/03 16:53:19;;;;;;;;;;;1.70;1.00;;;;;;4109226;28;20012;-50
2021/12/03 16:55:27;;;;;;;;;;;1.70;1.00;;;;;;4092399;28;19941;-46
2021/12/03 16:57:33;;;;;;;;;;;1.70;1.00;;;;;;4094891;28;19989;-49
2021/12/03 16:59:37;;;;;;;;;;;1.70;1.00;;;;;;4108962;28;20735;-52
2021/12/03 17:06:56;;;;;;;;;;;1.70;1.00;;;;;;4116269;28;19962;-49
2021/12/03 17:08:42;;;;;;;;;;;1.60;1.00;;;;;;4112065;28;20051;-47
2021/12/03 17:46:14;;;;;;;;;;;1.80;1.00;;;;;;4109495;28;20011;-50
2021/12/03 17:48:28;;;;;;;;;;;1.70;1.00;;;;;;4110999;28;20431;-47
2021/12/03 17:50:46;;;;;;;;;;;1.80;1.00;;;;;;4110337;28;19997;-49
2021/12/03 17:59:41;;;;;;;;;;;1.80;1.00;;;;;;4103105;28;19941;-47
2021/12/03 18:01:57;;;;;;;;;;;1.90;1.00;;;;;;4112656;28;20402;-50
2021/12/03 18:04:12;;;;;;;;;;;1.90;1.00;;;;;;4109310;28;19940;-49
2021/12/03 18:49:27;;;;;;;;;;;2.00;1.00;;;;;;4110779;28;19938;-47
2021/12/03 18:53:47;;;;;;;;;;;1.90;1.00;;;;;;4106314;28;20397;-46
2021/12/03 18:55:55;;;;;;;;;;;1.90;1.00;;;;;;4091555;28;19950;-49
2021/12/03 18:58:00;;;;;;;;;;;1.90;1.00;;;;;;4103852;28;20412;-49
2021/12/03 19:00:07;;;;;;;;;;;1.90;1.00;;;;;;4110803;28;19992;-50
2021/12/03 19:02:09;;;;;;;;;;;1.90;1.00;;;;;;4106269;28;19942;-49
2021/12/03 19:04:37;;;;;;;;;;;1.90;1.00;;;;;;4087657;28;19936;-48
2021/12/03 19:11:02;;;;;;;;;;;1.90;1.00;;;;;;4112325;28;19952;-52
2021/12/03 19:13:09;;;;;;;;;;;1.90;1.00;;;;;;4110717;28;19937;-47
2021/12/03 19:15:12;;;;;;;;;;;1.90;1.00;;;;;;4094099;28;19984;-50
2021/12/03 19:17:14;;;;;;;;;;;1.90;1.00;;;;;;4095373;28;20099;-47
2021/12/03 19:19:17;;;;;;;;;;;1.90;1.00;;;;;;4092706;28;19937;-47
2021/12/03 19:21:32;;;;;;;;;;;1.90;1.00;;;;;;4111819;28;19998;-53
2021/12/03 19:23:34;;;;;;;;;;;2.00;1.00;;;;;;4095225;28;19941;-48
2021/12/03 19:25:36;;;;;;;;;;;2.00;1.00;;;;;;4093676;28;19954;-50
2021/12/03 19:27:38;;;;;;;;;;;2.00;1.00;;;;;;4109622;28;20016;-53
2021/12/03 19:29:43;;;;;;;;;;;2.00;1.00;;;;;;4111673;28;19946;-51
2021/12/03 19:31:47;;;;;;;;;;;2.00;1.00;;;;;;4114230;28;19941;-47
2021/12/03 19:33:49;;;;;;;;;;;2.00;1.00;;;;;;4113643;28;20510;-48
2021/12/03 19:35:52;;;;;;;;;;;2.00;1.00;;;;;;4118794;28;20032;-49
2021/12/03 19:37:56;;;;;;;;;;;2.00;1.00;;;;;;4096101;28;19963;-53
2021/12/03 19:40:00;;;;;;;;;;;2.00;1.00;;;;;;4094373;28;19946;-50
2021/12/03 19:42:11;;;;;;;;;;;2.00;1.00;;;;;;4110410;28;19941;-52
2021/12/03 19:44:22;;;;;;;;;;;2.10;1.00;;;;;;4094678;28;19978;-46